sensor_id;sensor_type;location;lat;lon;timestamp;pressure;altitude;pressure_sealevel;temperature
28905;BMP280;60848;53.884;11.446;2023-02-03T00:01:20;101505.56;;;3.92
28905;BMP280;60848;53.884;11.446;2023-02-03T00:03:50;101505.41;;;3.89
28905;BMP280;60848;53.884;11.446;2023-02-03T00:06:18;101510.56;;;3.89
28905;BMP280;60848;53.884;11.446;2023-02-03T00:08:46;101494.09;;;3.85
28905;BMP280;60848;53.884;11.446;2023-02-03T00:11:15;101493.63;;;3.83
28905;BMP280;60848;53.884;11.446;2023-02-03T00:13:43;101477.88;;;3.79
28905;BMP280;60848;53.884;11.446;2023-02-03T00:16:11;101469.94;;;3.76
28905;BMP280;60848;53.884;11.446;2023-02-03T00:18:40;101460.94;;;3.73
28905;BMP280;60848;53.884;11.446;2023-02-03T00:21:09;101447.06;;;3.69
28905;BMP280;60848;53.884;11.446;2023-02-03T00:23:40;101425.66;;;3.69
28905;BMP280;60848;53.884;11.446;2023-02-03T00:26:09;101425.66;;;3.69
28905;BMP280;60848;53.884;11.446;2023-02-03T00:28:37;101405.22;;;3.67
28905;BMP280;60848;53.884;11.446;2023-02-03T00:31:13;101400.66;;;3.64
28905;BMP280;60848;53.884;11.446;2023-02-03T00:33:41;101394.69;;;3.63
28905;BMP280;60848;53.884;11.446;2023-02-03T00:36:11;101391.34;;;3.63
28905;BMP280;60848;53.884;11.446;2023-02-03T00:38:40;101369.13;;;3.62
28905;BMP280;60848;53.884;11.446;2023-02-03T00:41:08;101374.31;;;3.62
28905;BMP280;60848;53.884;11.446;2023-02-03T00:43:36;101379.47;;;3.62
28905;BMP280;60848;53.884;11.446;2023-02-03T00:46:04;101368.84;;;3.63
28905;BMP280;60848;53.884;11.446;2023-02-03T00:48:33;101355.13;;;3.63
28905;BMP280;60848;53.884;11.446;2023-02-03T00:51:01;101352.84;;;3.61
28905;BMP280;60848;53.884;11.446;2023-02-03T00:53:31;101337.03;;;3.63
28905;BMP280;60848;53.884;11.446;2023-02-03T00:55:59;101332.34;;;3.65
28905;BMP280;60848;53.884;11.446;2023-02-03T00:58:28;101319.41;;;3.65
28905;BMP280;60848;53.884;11.446;2023-02-03T01:00:56;101318.38;;;3.66
28905;BMP280;60848;53.884;11.446;2023-02-03T01:03:24;101313.19;;;3.66
28905;BMP280;60848;53.884;11.446;2023-02-03T01:05:52;101308.81;;;3.67
28905;BMP280;60848;53.884;11.446;2023-02-03T01:08:21;101308.66;;;3.72
28905;BMP280;60848;53.884;11.446;2023-02-03T01:10:50;101305.28;;;3.71
28905;BMP280;60848;53.884;11.446;2023-02-03T01:13:19;101298.00;;;3.73
28905;BMP280;60848;53.884;11.446;2023-02-03T01:15:47;101283.72;;;3.76
28905;BMP280;60848;53.884;11.446;2023-02-03T01:18:15;101277.50;;;3.77
28905;BMP280;60848;53.884;11.446;2023-02-03T01:20:43;101273.09;;;3.77
28905;BMP280;60848;53.884;11.446;2023-02-03T01:23:11;101280.38;;;3.75
28905;BMP280;60848;53.884;11.446;2023-02-03T01:25:40;101283.72;;;3.76
28905;BMP280;60848;53.884;11.446;2023-02-03T01:28:09;101263.81;;;3.76
28905;BMP280;60848;53.884;11.446;2023-02-03T01:30:38;101254.41;;;3.80
28905;BMP280;60848;53.884;11.446;2023-02-03T01:33:06;101251.81;;;3.80
28905;BMP280;60848;53.884;11.446;2023-02-03T01:35:34;101251.53;;;3.82
28905;BMP280;60848;53.884;11.446;2023-02-03T01:38:02;101250.94;;;3.85
28905;BMP280;60848;53.884;11.446;2023-02-03T01:40:31;101237.72;;;3.86
28905;BMP280;60848;53.884;11.446;2023-02-03T01:42:59;101221.88;;;3.88
28905;BMP280;60848;53.884;11.446;2023-02-03T01:45:28;101205.78;;;3.91
28905;BMP280;60848;53.884;11.446;2023-02-03T01:47:57;101203.97;;;3.91
28905;BMP280;60848;53.884;11.446;2023-02-03T01:50:27;101205.94;;;3.94
28905;BMP280;60848;53.884;11.446;2023-02-03T01:52:58;101209.91;;;4.00
28905;BMP280;60848;53.884;11.446;2023-02-03T01:55:32;101201.28;;;4.05
28905;BMP280;60848;53.884;11.446;2023-02-03T01:58:03;101205.84;;;4.08
28905;BMP280;60848;53.884;11.446;2023-02-03T02:00:34;101205.09;;;4.16
28905;BMP280;60848;53.884;11.446;2023-02-03T02:03:02;101196.28;;;4.17
28905;BMP280;60848;53.884;11.446;2023-02-03T02:05:33;101190.06;;;4.26
28905;BMP280;60848;53.884;11.446;2023-02-03T02:08:02;101180.34;;;4.32
28905;BMP280;60848;53.884;11.446;2023-02-03T02:10:31;101168.00;;;4.37
28905;BMP280;60848;53.884;11.446;2023-02-03T02:13:00;101156.75;;;4.42
28905;BMP280;60848;53.884;11.446;2023-02-03T02:15:35;101149.44;;;4.44
28905;BMP280;60848;53.884;11.446;2023-02-03T02:18:19;101135.44;;;4.45
28905;BMP280;60848;53.884;11.446;2023-02-03T02:21:01;101140.00;;;4.48
28905;BMP280;60848;53.884;11.446;2023-02-03T02:23:58;101124.66;;;4.51
28905;BMP280;60848;53.884;11.446;2023-02-03T02:26:56;101126.00;;;4.57
28905;BMP280;60848;53.884;11.446;2023-02-03T02:29:54;101106.97;;;4.62
28905;BMP280;60848;53.884;11.446;2023-02-03T02:32:33;101100.41;;;4.64
28905;BMP280;60848;53.884;11.446;2023-02-03T02:35:05;101105.13;;;4.71
28905;BMP280;60848;53.884;11.446;2023-02-03T02:37:37;101106.19;;;4.79
28905;BMP280;60848;53.884;11.446;2023-02-03T02:40:18;101092.78;;;4.85
28905;BMP280;60848;53.884;11.446;2023-02-03T02:42:59;101081.94;;;4.92
28905;BMP280;60848;53.884;11.446;2023-02-03T02:45:31;101073.72;;;4.98
28905;BMP280;60848;53.884;11.446;2023-02-03T02:48:06;101072.13;;;5.06
28905;BMP280;60848;53.884;11.446;2023-02-03T02:50:38;101073.81;;;5.10
28905;BMP280;60848;53.884;11.446;2023-02-03T02:53:08;101069.69;;;5.18
28905;BMP280;60848;53.884;11.446;2023-02-03T02:55:37;101067.06;;;5.26
28905;BMP280;60848;53.884;11.446;2023-02-03T02:58:08;101075.56;;;5.35
28905;BMP280;60848;53.884;11.446;2023-02-03T03:00:38;101077.34;;;5.43
28905;BMP280;60848;53.884;11.446;2023-02-03T03:03:13;101072.13;;;5.52
28905;BMP280;60848;53.884;11.446;2023-02-03T03:05:43;101057.59;;;5.59
28905;BMP280;60848;53.884;11.446;2023-02-03T03:08:13;101039.72;;;5.66
28905;BMP280;60848;53.884;11.446;2023-02-03T03:10:41;101040.72;;;5.74
28905;BMP280;60848;53.884;11.446;2023-02-03T03:13:12;101036.13;;;5.80
28905;BMP280;60848;53.884;11.446;2023-02-03T03:15:41;101025.97;;;5.87
28905;BMP280;60848;53.884;11.446;2023-02-03T03:18:14;101028.09;;;5.93
28905;BMP280;60848;53.884;11.446;2023-02-03T03:20:45;101023.13;;;6.00
28905;BMP280;60848;53.884;11.446;2023-02-03T03:23:17;101013.78;;;6.08
28905;BMP280;60848;53.884;11.446;2023-02-03T03:25:48;101014.31;;;6.13
28905;BMP280;60848;53.884;11.446;2023-02-03T03:28:21;101001.59;;;6.20
28905;BMP280;60848;53.884;11.446;2023-02-03T03:30:52;100998.78;;;6.25
28905;BMP280;60848;53.884;11.446;2023-02-03T03:33:22;101000.13;;;6.31
28905;BMP280;60848;53.884;11.446;2023-02-03T03:35:53;100991.38;;;6.36
28905;BMP280;60848;53.884;11.446;2023-02-03T03:38:27;100982.59;;;6.40
28905;BMP280;60848;53.884;11.446;2023-02-03T03:41:02;100978.44;;;6.48
28905;BMP280;60848;53.884;11.446;2023-02-03T03:43:31;100978.97;;;6.53
28905;BMP280;60848;53.884;11.446;2023-02-03T03:46:05;100968.38;;;6.58
28905;BMP280;60848;53.884;11.446;2023-02-03T03:48:41;100951.81;;;6.63
28905;BMP280;60848;53.884;11.446;2023-02-03T03:51:15;100954.97;;;6.68
28905;BMP280;60848;53.884;11.446;2023-02-03T03:53:45;100947.38;;;6.75
28905;BMP280;60848;53.884;11.446;2023-02-03T03:56:21;100943.91;;;6.83
28905;BMP280;60848;53.884;11.446;2023-02-03T03:58:50;100937.31;;;6.86
28905;BMP280;60848;53.884;11.446;2023-02-03T04:01:19;100940.44;;;6.92
28905;BMP280;60848;53.884;11.446;2023-02-03T04:03:53;100933.63;;;6.99
28905;BMP280;60848;53.884;11.446;2023-02-03T04:06:22;100936.00;;;7.04
28905;BMP280;60848;53.884;11.446;2023-02-03T04:08:50;100941.00;;;7.09
28905;BMP280;60848;53.884;11.446;2023-02-03T04:11:19;100941.50;;;7.15
28905;BMP280;60848;53.884;11.446;2023-02-03T04:14:01;100939.78;;;7.19
28905;BMP280;60848;53.884;11.446;2023-02-03T04:16:29;100940.66;;;7.23
28905;BMP280;60848;53.884;11.446;2023-02-03T04:18:59;100926.94;;;7.26
28905;BMP280;60848;53.884;11.446;2023-02-03T04:21:27;100924.47;;;7.29
28905;BMP280;60848;53.884;11.446;2023-02-03T04:23:55;100924.25;;;7.34
28905;BMP280;60848;53.884;11.446;2023-02-03T04:26:23;100919.88;;;7.38
28905;BMP280;60848;53.884;11.446;2023-02-03T04:28:52;100915.13;;;7.40
28905;BMP280;60848;53.884;11.446;2023-02-03T04:31:20;100910.34;;;7.42
28905;BMP280;60848;53.884;11.446;2023-02-03T04:33:48;100907.09;;;7.45
28905;BMP280;60848;53.884;11.446;2023-02-03T04:36:18;100891.16;;;7.47
28905;BMP280;60848;53.884;11.446;2023-02-03T04:38:47;100888.56;;;7.47
28905;BMP280;60848;53.884;11.446;2023-02-03T04:41:15;100882.66;;;7.50
28905;BMP280;60848;53.884;11.446;2023-02-03T04:43:43;100878.66;;;7.52
28905;BMP280;60848;53.884;11.446;2023-02-03T04:46:12;100872.03;;;7.55
28905;BMP280;60848;53.884;11.446;2023-02-03T04:48:40;100859.78;;;7.55
28905;BMP280;60848;53.884;11.446;2023-02-03T04:51:08;100857.63;;;7.57
28905;BMP280;60848;53.884;11.446;2023-02-03T04:53:38;100850.25;;;7.59
28905;BMP280;60848;53.884;11.446;2023-02-03T04:56:06;100853.97;;;7.62
28905;BMP280;60848;53.884;11.446;2023-02-03T04:58:35;100835.47;;;7.63
28905;BMP280;60848;53.884;11.446;2023-02-03T05:01:07;100842.94;;;7.65
28905;BMP280;60848;53.884;11.446;2023-02-03T05:03:35;100837.72;;;7.65
28905;BMP280;60848;53.884;11.446;2023-02-03T05:06:04;100837.72;;;7.65
28905;BMP280;60848;53.884;11.446;2023-02-03T05:08:32;100832.94;;;7.67
28905;BMP280;60848;53.884;11.446;2023-02-03T05:11:02;100815.81;;;7.66
28905;BMP280;60848;53.884;11.446;2023-02-03T05:13:32;100816.66;;;7.70
28905;BMP280;60848;53.884;11.446;2023-02-03T05:16:00;100810.00;;;7.72
28905;BMP280;60848;53.884;11.446;2023-02-03T05:18:28;100801.91;;;7.74
28905;BMP280;60848;53.884;11.446;2023-02-03T05:20:57;100816.84;;;7.77
28905;BMP280;60848;53.884;11.446;2023-02-03T05:23:25;100810.56;;;7.78
28905;BMP280;60848;53.884;11.446;2023-02-03T05:25:53;100809.44;;;7.79
28905;BMP280;60848;53.884;11.446;2023-02-03T05:28:23;100807.63;;;7.79
28905;BMP280;60848;53.884;11.446;2023-02-03T05:30:51;100810.56;;;7.78
28905;BMP280;60848;53.884;11.446;2023-02-03T05:33:19;100810.22;;;7.79
28905;BMP280;60848;53.884;11.446;2023-02-03T05:35:47;100798.69;;;7.80
28905;BMP280;60848;53.884;11.446;2023-02-03T05:38:16;100796.09;;;7.80
28905;BMP280;60848;53.884;11.446;2023-02-03T05:40:46;100797.25;;;7.83
28905;BMP280;60848;53.884;11.446;2023-02-03T05:43:33;100784.25;;;7.83
28905;BMP280;60848;53.884;11.446;2023-02-03T05:46:03;100777.19;;;7.83
28905;BMP280;60848;53.884;11.446;2023-02-03T05:48:32;100779.03;;;7.83
28905;BMP280;60848;53.884;11.446;2023-02-03T05:51:00;100774.69;;;7.87
28905;BMP280;60848;53.884;11.446;2023-02-03T05:53:29;100758.28;;;7.86
28905;BMP280;60848;53.884;11.446;2023-02-03T05:55:57;100744.53;;;7.86
28905;BMP280;60848;53.884;11.446;2023-02-03T05:58:25;100747.88;;;7.86
28905;BMP280;60848;53.884;11.446;2023-02-03T06:00:55;100747.56;;;7.88
28905;BMP280;60848;53.884;11.446;2023-02-03T06:03:23;100754.69;;;7.91
28905;BMP280;60848;53.884;11.446;2023-02-03T06:05:51;100738.72;;;7.92
28905;BMP280;60848;53.884;11.446;2023-02-03T06:08:20;100723.84;;;7.93
28905;BMP280;60848;53.884;11.446;2023-02-03T06:10:48;100708.22;;;7.93
28905;BMP280;60848;53.884;11.446;2023-02-03T06:13:16;100713.84;;;7.95
28905;BMP280;60848;53.884;11.446;2023-02-03T06:15:45;100709.06;;;7.97
28905;BMP280;60848;53.884;11.446;2023-02-03T06:18:14;100716.97;;;8.00
28905;BMP280;60848;53.884;11.446;2023-02-03T06:20:42;100698.75;;;8.00
28905;BMP280;60848;53.884;11.446;2023-02-03T06:23:11;100699.16;;;8.02
28905;BMP280;60848;53.884;11.446;2023-02-03T06:25:39;100698.47;;;8.05
28905;BMP280;60848;53.884;11.446;2023-02-03T06:28:08;100687.72;;;8.07
28905;BMP280;60848;53.884;11.446;2023-02-03T06:30:36;100686.28;;;8.10
28905;BMP280;60848;53.884;11.446;2023-02-03T06:33:04;100687.09;;;8.14
28905;BMP280;60848;53.884;11.446;2023-02-03T06:35:34;100680.06;;;8.14
28905;BMP280;60848;53.884;11.446;2023-02-03T06:38:02;100670.38;;;8.15
28905;BMP280;60848;53.884;11.446;2023-02-03T06:40:30;100670.06;;;8.16
28905;BMP280;60848;53.884;11.446;2023-02-03T06:42:59;100661.13;;;8.17
28905;BMP280;60848;53.884;11.446;2023-02-03T06:45:27;100648.88;;;8.18
28905;BMP280;60848;53.884;11.446;2023-02-03T06:47:55;100652.66;;;8.20
28905;BMP280;60848;53.884;11.446;2023-02-03T06:50:23;100644.84;;;8.20
28905;BMP280;60848;53.884;11.446;2023-02-03T06:52:53;100642.66;;;8.22
28905;BMP280;60848;53.884;11.446;2023-02-03T06:55:22;100641.13;;;8.21
28905;BMP280;60848;53.884;11.446;2023-02-03T06:57:50;100639.63;;;8.20
28905;BMP280;60848;53.884;11.446;2023-02-03T07:00:19;100654.50;;;8.20
28905;BMP280;60848;53.884;11.446;2023-02-03T07:02:52;100659.03;;;8.23
28905;BMP280;60848;53.884;11.446;2023-02-03T07:05:21;100652.72;;;8.24
28905;BMP280;60848;53.884;11.446;2023-02-03T07:07:50;100645.31;;;8.26
28905;BMP280;60848;53.884;11.446;2023-02-03T07:10:20;100632.69;;;8.28
28905;BMP280;60848;53.884;11.446;2023-02-03T07:12:48;100642.34;;;8.27
28905;BMP280;60848;53.884;11.446;2023-02-03T07:15:17;100630.50;;;8.30
28905;BMP280;60848;53.884;11.446;2023-02-03T07:17:46;100619.31;;;8.29
28905;BMP280;60848;53.884;11.446;2023-02-03T07:20:21;100626.78;;;8.31
28905;BMP280;60848;53.884;11.446;2023-02-03T07:22:53;100628.25;;;8.28
28905;BMP280;60848;53.884;11.446;2023-02-03T07:25:23;100610.75;;;8.29
28905;BMP280;60848;53.884;11.446;2023-02-03T07:27:52;100603.69;;;8.29
28905;BMP280;60848;53.884;11.446;2023-02-03T07:30:21;100608.56;;;8.31
28905;BMP280;60848;53.884;11.446;2023-02-03T07:32:50;100588.84;;;8.30
28905;BMP280;60848;53.884;11.446;2023-02-03T07:35:19;100602.28;;;8.32
28905;BMP280;60848;53.884;11.446;2023-02-03T07:37:47;100590.75;;;8.33
28905;BMP280;60848;53.884;11.446;2023-02-03T07:40:16;100607.91;;;8.34
28905;BMP280;60848;53.884;11.446;2023-02-03T07:42:47;100609.75;;;8.33
28905;BMP280;60848;53.884;11.446;2023-02-03T07:45:16;100604.91;;;8.35
28905;BMP280;60848;53.884;11.446;2023-02-03T07:47:45;100630.31;;;8.38
28905;BMP280;60848;53.884;11.446;2023-02-03T07:50:13;100631.06;;;8.39
28905;BMP280;60848;53.884;11.446;2023-02-03T07:52:41;100632.22;;;8.41
28905;BMP280;60848;53.884;11.446;2023-02-03T07:55:10;100638.59;;;8.44
28905;BMP280;60848;53.884;11.446;2023-02-03T07:57:38;100635.63;;;8.45
28905;BMP280;60848;53.884;11.446;2023-02-03T08:00:13;100667.31;;;8.47
28905;BMP280;60848;53.884;11.446;2023-02-03T08:02:42;100658.00;;;8.46
28905;BMP280;60848;53.884;11.446;2023-02-03T08:05:11;100654.25;;;8.44
28905;BMP280;60848;53.884;11.446;2023-02-03T08:07:40;100666.84;;;8.42
28905;BMP280;60848;53.884;11.446;2023-02-03T08:10:10;100673.16;;;8.41
28905;BMP280;60848;53.884;11.446;2023-02-03T08:12:39;100669.72;;;8.37
28905;BMP280;60848;53.884;11.446;2023-02-03T08:15:13;100624.59;;;8.33
28905;BMP280;60848;53.884;11.446;2023-02-03T08:17:41;100605.22;;;8.30
28905;BMP280;60848;53.884;11.446;2023-02-03T08:20:11;100627.16;;;8.29
28905;BMP280;60848;53.884;11.446;2023-02-03T08:22:39;100610.28;;;8.23
28905;BMP280;60848;53.884;11.446;2023-02-03T08:25:08;100597.97;;;8.20
28905;BMP280;60848;53.884;11.446;2023-02-03T08:27:36;100587.53;;;8.20
28905;BMP280;60848;53.884;11.446;2023-02-03T08:30:06;100609.38;;;8.16
28905;BMP280;60848;53.884;11.446;2023-02-03T08:32:36;100596.38;;;8.16
28905;BMP280;60848;53.884;11.446;2023-02-03T08:35:05;100585.94;;;8.16
28905;BMP280;60848;53.884;11.446;2023-02-03T08:37:34;100593.72;;;8.12
28905;BMP280;60848;53.884;11.446;2023-02-03T08:40:03;100602.25;;;8.13
28905;BMP280;60848;53.884;11.446;2023-02-03T08:42:31;100597.13;;;8.16
28905;BMP280;60848;53.884;11.446;2023-02-03T08:45:00;100596.38;;;8.16
28905;BMP280;60848;53.884;11.446;2023-02-03T08:47:31;100627.69;;;8.19
28905;BMP280;60848;53.884;11.446;2023-02-03T08:50:00;100644.44;;;8.18
28905;BMP280;60848;53.884;11.446;2023-02-03T08:52:28;100647.34;;;8.17
28905;BMP280;60848;53.884;11.446;2023-02-03T08:54:57;100650.38;;;8.19
28905;BMP280;60848;53.884;11.446;2023-02-03T08:57:25;100659.72;;;8.20
28905;BMP280;60848;53.884;11.446;2023-02-03T08:59:53;100647.09;;;8.22
28905;BMP280;60848;53.884;11.446;2023-02-03T09:02:21;100664.63;;;8.25
28905;BMP280;60848;53.884;11.446;2023-02-03T09:04:49;100671.00;;;8.27
28905;BMP280;60848;53.884;11.446;2023-02-03T09:07:19;100663.63;;;8.29
28905;BMP280;60848;53.884;11.446;2023-02-03T09:09:47;100673.69;;;8.31
28905;BMP280;60848;53.884;11.446;2023-02-03T09:12:15;100683.44;;;8.34
28905;BMP280;60848;53.884;11.446;2023-02-03T09:14:44;100683.84;;;8.36
28905;BMP280;60848;53.884;11.446;2023-02-03T09:17:12;100687.63;;;8.38
28905;BMP280;60848;53.884;11.446;2023-02-03T09:19:40;100691.41;;;8.41
28905;BMP280;60848;53.884;11.446;2023-02-03T09:22:08;100696.28;;;8.42
28905;BMP280;60848;53.884;11.446;2023-02-03T09:24:38;100698.91;;;8.46
28905;BMP280;60848;53.884;11.446;2023-02-03T09:27:06;100710.88;;;8.47
28905;BMP280;60848;53.884;11.446;2023-02-03T09:29:34;100704.56;;;8.48
28905;BMP280;60848;53.884;11.446;2023-02-03T09:32:03;100714.97;;;8.48
28905;BMP280;60848;53.884;11.446;2023-02-03T09:34:34;100726.16;;;8.48
28905;BMP280;60848;53.884;11.446;2023-02-03T09:37:03;100719.41;;;8.47
28905;BMP280;60848;53.884;11.446;2023-02-03T09:39:31;100721.72;;;8.49
28905;BMP280;60848;53.884;11.446;2023-02-03T09:44:56;100734.50;;;8.57
28905;BMP280;60848;53.884;11.446;2023-02-03T09:47:27;100734.09;;;8.74
28905;BMP280;60848;53.884;11.446;2023-02-03T09:49:57;100748.63;;;8.94
28905;BMP280;60848;53.884;11.446;2023-02-03T09:52:26;100729.59;;;9.13
28905;BMP280;60848;53.884;11.446;2023-02-03T09:54:57;100740.06;;;9.36
28905;BMP280;60848;53.884;11.446;2023-02-03T09:57:44;100741.66;;;9.66
28905;BMP280;60848;53.884;11.446;2023-02-03T10:00:18;100746.13;;;9.92
28905;BMP280;60848;53.884;11.446;2023-02-03T10:02:54;100742.94;;;10.05
28905;BMP280;60848;53.884;11.446;2023-02-03T10:05:31;100736.66;;;10.10
28905;BMP280;60848;53.884;11.446;2023-02-03T10:08:06;100753.16;;;10.14
28905;BMP280;60848;53.884;11.446;2023-02-03T10:10:39;100753.16;;;10.17
28905;BMP280;60848;53.884;11.446;2023-02-03T10:13:15;100736.34;;;10.15
28905;BMP280;60848;53.884;11.446;2023-02-03T10:16:02;100758.31;;;10.10
28905;BMP280;60848;53.884;11.446;2023-02-03T10:18:34;100755.25;;;10.05
28905;BMP280;60848;53.884;11.446;2023-02-03T10:21:04;100766.03;;;10.00
28905;BMP280;60848;53.884;11.446;2023-02-03T10:23:39;100801.38;;;9.94
28905;BMP280;60848;53.884;11.446;2023-02-03T10:26:11;100776.63;;;9.84
28905;BMP280;60848;53.884;11.446;2023-02-03T10:28:45;100791.66;;;9.68
28905;BMP280;60848;53.884;11.446;2023-02-03T10:31:17;100789.16;;;9.53
28905;BMP280;60848;53.884;11.446;2023-02-03T10:33:55;100807.91;;;9.36
28905;BMP280;60848;53.884;11.446;2023-02-03T10:36:32;100792.63;;;9.15
28905;BMP280;60848;53.884;11.446;2023-02-03T10:39:12;100787.06;;;8.97
28905;BMP280;60848;53.884;11.446;2023-02-03T10:41:43;100814.00;;;8.82
28905;BMP280;60848;53.884;11.446;2023-02-03T10:44:13;100829.34;;;8.68
28905;BMP280;60848;53.884;11.446;2023-02-03T10:46:42;100865.03;;;8.49
28905;BMP280;60848;53.884;11.446;2023-02-03T10:49:11;100854.47;;;8.26
28905;BMP280;60848;53.884;11.446;2023-02-03T10:51:43;100843.09;;;8.03
28905;BMP280;60848;53.884;11.446;2023-02-03T10:54:27;100830.75;;;7.84
28905;BMP280;60848;53.884;11.446;2023-02-03T10:57:02;100818.53;;;7.69
28905;BMP280;60848;53.884;11.446;2023-02-03T10:59:34;100816.00;;;7.57
28905;BMP280;60848;53.884;11.446;2023-02-03T11:02:07;100817.63;;;7.50
28905;BMP280;60848;53.884;11.446;2023-02-03T11:04:36;100813.16;;;7.50
28905;BMP280;60848;53.884;11.446;2023-02-03T11:07:05;100815.13;;;7.53
28905;BMP280;60848;53.884;11.446;2023-02-03T11:09:36;100814.13;;;7.58
28905;BMP280;60848;53.884;11.446;2023-02-03T11:12:12;100817.66;;;7.65
28905;BMP280;60848;53.884;11.446;2023-02-03T11:14:43;100804.50;;;7.74
28905;BMP280;60848;53.884;11.446;2023-02-03T11:17:15;100815.47;;;7.83
28905;BMP280;60848;53.884;11.446;2023-02-03T11:19:44;100816.09;;;7.92
28905;BMP280;60848;53.884;11.446;2023-02-03T11:22:21;100816.69;;;8.01
28905;BMP280;60848;53.884;11.446;2023-02-03T11:24:53;100821.03;;;8.13
28905;BMP280;60848;53.884;11.446;2023-02-03T11:27:21;100821.63;;;8.22
28905;BMP280;60848;53.884;11.446;2023-02-03T11:29:55;100819.50;;;8.27
28905;BMP280;60848;53.884;11.446;2023-02-03T11:32:35;100818.97;;;8.37
28905;BMP280;60848;53.884;11.446;2023-02-03T11:35:13;100816.19;;;8.46
28905;BMP280;60848;53.884;11.446;2023-02-03T11:37:43;100817.19;;;8.57
28905;BMP280;60848;53.884;11.446;2023-02-03T11:40:24;100812.81;;;8.61
28905;BMP280;60848;53.884;11.446;2023-02-03T11:43:02;100821.50;;;8.68
28905;BMP280;60848;53.884;11.446;2023-02-03T11:45:37;100824.00;;;8.80
28905;BMP280;60848;53.884;11.446;2023-02-03T11:48:21;100829.09;;;8.92
28905;BMP280;60848;53.884;11.446;2023-02-03T11:50:54;100820.84;;;9.09
28905;BMP280;60848;53.884;11.446;2023-02-03T11:53:29;100825.97;;;9.25
28905;BMP280;60848;53.884;11.446;2023-02-03T11:56:14;100828.66;;;9.28
28905;BMP280;60848;53.884;11.446;2023-02-03T11:59:04;100828.47;;;9.41
28905;BMP280;60848;53.884;11.446;2023-02-03T12:01:48;100831.28;;;9.51
28905;BMP280;60848;53.884;11.446;2023-02-03T12:04:38;100827.34;;;9.61
28905;BMP280;60848;53.884;11.446;2023-02-03T12:07:28;100835.06;;;9.76
28905;BMP280;60848;53.884;11.446;2023-02-03T12:10:03;100830.09;;;9.94
28905;BMP280;60848;53.884;11.446;2023-02-03T12:12:42;100833.31;;;10.10
28905;BMP280;60848;53.884;11.446;2023-02-03T12:15:27;100820.34;;;10.17
28905;BMP280;60848;53.884;11.446;2023-02-03T12:18:14;100807.38;;;10.20
28905;BMP280;60848;53.884;11.446;2023-02-03T12:20:54;100826.72;;;10.45
28905;BMP280;60848;53.884;11.446;2023-02-03T12:23:33;100817.69;;;10.69
28905;BMP280;60848;53.884;11.446;2023-02-03T12:26:16;100825.88;;;10.67
28905;BMP280;60848;53.884;11.446;2023-02-03T12:28:49;100825.44;;;10.62
28905;BMP280;60848;53.884;11.446;2023-02-03T12:31:26;100821.09;;;10.43
28905;BMP280;60848;53.884;11.446;2023-02-03T12:34:02;100817.97;;;10.31
28905;BMP280;60848;53.884;11.446;2023-02-03T12:36:35;100824.13;;;10.19
28905;BMP280;60848;53.884;11.446;2023-02-03T12:39:06;100819.88;;;10.08
28905;BMP280;60848;53.884;11.446;2023-02-03T12:41:38;100823.44;;;9.96
28905;BMP280;60848;53.884;11.446;2023-02-03T12:44:13;100838.22;;;9.89
28905;BMP280;60848;53.884;11.446;2023-02-03T12:46:45;100854.19;;;9.84
28905;BMP280;60848;53.884;11.446;2023-02-03T12:49:25;100868.63;;;9.74
28905;BMP280;60848;53.884;11.446;2023-02-03T12:51:57;100876.69;;;9.66
28905;BMP280;60848;53.884;11.446;2023-02-03T12:54:32;100882.38;;;9.52
28905;BMP280;60848;53.884;11.446;2023-02-03T12:57:09;100866.25;;;9.47
28905;BMP280;60848;53.884;11.446;2023-02-03T12:59:40;100881.72;;;9.36
28905;BMP280;60848;53.884;11.446;2023-02-03T13:02:13;100872.25;;;9.28
28905;BMP280;60848;53.884;11.446;2023-02-03T13:04:48;100884.41;;;9.20
28905;BMP280;60848;53.884;11.446;2023-02-03T13:07:20;100876.88;;;9.15
28905;BMP280;60848;53.884;11.446;2023-02-03T13:09:53;100876.09;;;9.15
28905;BMP280;60848;53.884;11.446;2023-02-03T13:12:26;100876.50;;;9.17
28905;BMP280;60848;53.884;11.446;2023-02-03T13:14:58;100859.44;;;9.19
28905;BMP280;60848;53.884;11.446;2023-02-03T13:17:33;100872.78;;;9.18
28905;BMP280;60848;53.884;11.446;2023-02-03T13:20:18;100882.53;;;9.21
28905;BMP280;60848;53.884;11.446;2023-02-03T13:22:46;100871.75;;;9.22
28905;BMP280;60848;53.884;11.446;2023-02-03T13:25:17;100869.88;;;9.19
28905;BMP280;60848;53.884;11.446;2023-02-03T13:27:49;100870.94;;;9.18
28905;BMP280;60848;53.884;11.446;2023-02-03T13:30:38;100887.63;;;9.14
28905;BMP280;60848;53.884;11.446;2023-02-03T13:36:12;100884.19;;;9.10
28905;BMP280;60848;53.884;11.446;2023-02-03T13:41:40;100886.94;;;8.98
28905;BMP280;60848;53.884;11.446;2023-02-03T13:44:12;100874.09;;;8.89
28905;BMP280;60848;53.884;11.446;2023-02-03T13:46:45;100883.25;;;8.83
28905;BMP280;60848;53.884;11.446;2023-02-03T13:49:19;100890.59;;;8.78
28905;BMP280;60848;53.884;11.446;2023-02-03T13:51:50;100883.13;;;8.76
28905;BMP280;60848;53.884;11.446;2023-02-03T13:54:22;100888.19;;;8.69
28905;BMP280;60848;53.884;11.446;2023-02-03T13:56:53;100896.34;;;8.68
28905;BMP280;60848;53.884;11.446;2023-02-03T13:59:27;100894.09;;;8.66
28905;BMP280;60848;53.884;11.446;2023-02-03T14:05:00;100905.28;;;8.67
28905;BMP280;60848;53.884;11.446;2023-02-03T14:07:32;100908.97;;;8.66
28905;BMP280;60848;53.884;11.446;2023-02-03T14:10:19;100913.00;;;8.63
28905;BMP280;60848;53.884;11.446;2023-02-03T14:12:55;100911.84;;;8.61
28905;BMP280;60848;53.884;11.446;2023-02-03T14:15:31;100924.53;;;8.62
28905;BMP280;60848;53.884;11.446;2023-02-03T14:23:42;100928.47;;;8.56
28905;BMP280;60848;53.884;11.446;2023-02-03T14:26:20;100932.16;;;8.55
28905;BMP280;60848;53.884;11.446;2023-02-03T14:28:49;100943.00;;;8.57
28905;BMP280;60848;53.884;11.446;2023-02-03T14:31:20;100947.41;;;8.69
28905;BMP280;60848;53.884;11.446;2023-02-03T14:34:07;100933.09;;;8.78
28905;BMP280;60848;53.884;11.446;2023-02-03T14:36:42;100945.69;;;8.76
28905;BMP280;60848;53.884;11.446;2023-02-03T14:42:48;100958.31;;;8.74